Time;durP1;ratioP1;P1;durP2;ratioP2;P2;SDS_P1;SDS_P2;PMS_P1;PMS_P2;Temp;Humidity;BMP_temperature;BMP_pressure;BME280_temperature;BME280_humidity;BME280_pressure;Samples;Min_cycle;Max_cycle;Signal;HPM_P1;HPM_P2
2022/09/10 00:01:32;;;;;;;6.30;2.90;;;;;;;13.99;100.00;99987.41;5045290;28;20473;-74
2022/09/10 00:03:59;;;;;;;6.15;3.03;;;;;;;13.77;100.00;99956.34;5049816;28;20033;-74
2022/09/10 00:06:26;;;;;;;11.75;3.63;;;;;;;14.01;100.00;99990.75;5061977;28;20026;-73
2022/09/10 00:08:56;;;;;;;6.90;3.25;;;;;;;13.99;100.00;99982.94;5042755;28;20029;-74
2022/09/10 00:11:23;;;;;;;7.90;3.30;;;;;;;14.02;100.00;99990.66;5030448;28;20034;-74
2022/09/10 00:13:49;;;;;;;8.93;3.22;;;;;;;14.01;100.00;99978.41;5049011;28;20108;-74
2022/09/10 00:16:17;;;;;;;6.05;3.10;;;;;;;14.06;100.00;99992.13;5051063;28;20025;-74
2022/09/10 00:18:43;;;;;;;6.80;3.30;;;;;;;14.08;100.00;99992.03;5033270;28;20032;-74
2022/09/10 00:21:11;;;;;;;7.05;3.58;;;;;;;14.03;100.00;99979.13;5056385;28;20029;-74
2022/09/10 00:23:37;;;;;;;9.25;3.63;;;;;;;13.99;100.00;99982.13;5033542;28;20037;-78
2022/09/10 00:26:20;;;;;;;8.00;3.42;;;;;;;13.92;100.00;99981.72;5054814;28;20530;-78
2022/09/10 00:28:46;;;;;;;8.48;3.60;;;;;;;13.85;100.00;99975.16;5062857;28;20529;-77
2022/09/10 00:31:12;;;;;;;6.50;3.80;;;;;;;13.86;100.00;99976.84;5056829;28;20016;-77
2022/09/10 00:33:38;;;;;;;9.32;4.03;;;;;;;13.80;100.00;99974.63;5054615;28;20100;-76
2022/09/10 00:36:14;;;;;;;6.97;3.67;;;;;;;13.63;100.00;99948.56;5063135;28;20036;-76
2022/09/10 00:38:39;;;;;;;6.82;3.70;;;;;;;13.82;100.00;99972.75;5050662;28;20067;-76
2022/09/10 00:41:07;;;;;;;8.07;4.18;;;;;;;13.85;100.00;99976.97;5050876;28;20025;-77
2022/09/10 00:44:39;;;;;;;9.40;4.93;;;;;;;13.87;100.00;99967.97;5048293;28;20017;-76
2022/09/10 00:47:07;;;;;;;8.50;4.35;;;;;;;13.88;100.00;99964.38;5012224;28;20041;-75
2022/09/10 00:49:37;;;;;;;8.77;4.60;;;;;;;13.84;100.00;99957.63;5052896;28;20395;-74
2022/09/10 00:52:03;;;;;;;6.20;4.05;;;;;;;13.88;100.00;99967.03;5053423;28;20032;-75
2022/09/10 00:54:30;;;;;;;10.23;5.38;;;;;;;13.85;100.00;99969.88;5053074;28;20426;-75
2022/09/10 00:56:58;;;;;;;9.77;4.88;;;;;;;13.63;100.00;99938.00;5053096;28;20029;-75
2022/09/10 00:59:25;;;;;;;13.73;6.18;;;;;;;13.87;100.00;99973.25;5043576;28;20518;-74
2022/09/10 01:01:51;;;;;;;17.00;6.22;;;;;;;13.87;100.00;99978.53;5056447;28;20104;-74
2022/09/10 01:04:16;;;;;;;10.35;5.88;;;;;;;13.92;100.00;99983.50;5062869;28;20426;-74
2022/09/10 01:06:44;;;;;;;12.43;6.70;;;;;;;13.95;100.00;99985.91;5053700;28;20037;-76
2022/09/10 01:09:09;;;;;;;9.07;6.07;;;;;;;13.98;100.00;99990.97;5052975;28;20029;-75
2022/09/10 01:11:44;;;;;;;10.57;6.93;;;;;;;13.99;100.00;99984.75;5053829;28;20029;-75
2022/09/10 01:14:36;;;;;;;14.43;7.15;;;;;;;14.00;100.00;99989.06;5040473;28;20039;-74
2022/09/10 01:17:34;;;;;;;16.35;6.68;;;;;;;14.03;100.00;99994.13;5052834;28;20028;-74
2022/09/10 01:20:18;;;;;;;17.50;8.27;;;;;;;14.06;100.00;99988.66;5052147;28;20040;-74
2022/09/10 01:23:06;;;;;;;11.02;6.55;;;;;;;14.05;100.00;99982.53;5039365;28;20104;-76
2022/09/10 01:25:50;;;;;;;11.88;8.02;;;;;;;14.06;100.00;99980.72;5049448;28;20071;-74
2022/09/10 01:28:25;;;;;;;10.50;6.93;;;;;;;14.06;100.00;100000.03;5052518;28;20033;-74
2022/09/10 01:30:55;;;;;;;12.00;7.05;;;;;;;14.07;100.00;99987.69;5053869;28;20315;-74
2022/09/10 01:33:29;;;;;;;12.25;6.55;;;;;;;14.06;100.00;99989.47;5055091;28;20013;-74
2022/09/10 01:36:01;;;;;;;12.93;6.85;;;;;;;14.08;100.00;99987.59;5052525;28;20095;-74
2022/09/10 01:38:34;;;;;;;13.65;7.75;;;;;;;14.07;100.00;99996.47;5049475;28;20379;-73
2022/09/10 01:41:00;;;;;;;12.33;6.30;;;;;;;14.08;100.00;99987.59;5051897;28;20051;-75
2022/09/10 01:43:26;;;;;;;9.45;6.82;;;;;;;14.07;100.00;99985.88;5053462;28;20436;-75
2022/09/10 01:46:02;;;;;;;13.52;6.97;;;;;;;14.11;100.00;99994.44;5052232;28;20479;-75
2022/09/10 01:48:45;;;;;;;11.65;6.45;;;;;;;14.11;100.00;99997.94;5040549;28;20112;-76
2022/09/10 01:51:35;;;;;;;11.82;6.00;;;;;;;14.09;100.00;99989.25;5059234;28;20032;-73
2022/09/10 01:54:27;;;;;;;13.63;6.75;;;;;;;14.13;100.00;99990.72;5047456;28;20029;-74
2022/09/10 01:57:06;;;;;;;9.30;5.75;;;;;;;14.09;100.00;99975.22;5046337;28;20036;-74
2022/09/10 01:59:38;;;;;;;15.18;6.78;;;;;;;14.12;100.00;99981.13;5052644;28;20028;-74
2022/09/10 02:02:12;;;;;;;11.93;6.35;;;;;;;14.09;100.00;99973.41;5052993;28;20086;-74
2022/09/10 02:04:37;;;;;;;9.52;5.43;;;;;;;14.14;100.00;99976.56;5047273;28;20037;-74
2022/09/10 02:07:04;;;;;;;11.82;6.63;;;;;;;14.07;100.00;99967.38;5052843;28;20044;-74
2022/09/10 02:09:30;;;;;;;12.90;7.22;;;;;;;14.12;100.00;99965.28;5050693;28;20446;-74
2022/09/10 02:11:55;;;;;;;11.57;6.90;;;;;;;14.15;100.00;99962.41;5050134;28;20504;-73
2022/09/10 02:14:21;;;;;;;16.98;5.72;;;;;;;13.78;100.00;99913.16;5052477;28;20104;-73
2022/09/10 02:16:52;;;;;;;14.95;7.15;;;;;;;14.17;100.00;99972.84;5058359;28;20443;-73
2022/09/10 02:19:18;;;;;;;10.55;6.38;;;;;;;14.15;100.00;99961.56;5055882;28;20029;-73
2022/09/10 02:21:44;;;;;;;10.50;6.35;;;;;;;14.12;100.00;99964.44;5051998;28;20044;-73
2022/09/10 02:24:11;;;;;;;12.68;6.32;;;;;;;14.16;100.00;99973.84;5039007;28;20075;-73
2022/09/10 02:26:39;;;;;;;8.52;5.75;;;;;;;14.17;100.00;99971.06;5063699;28;20114;-73
2022/09/10 02:29:05;;;;;;;11.85;6.10;;;;;;;14.08;100.00;99947.09;5051106;28;20024;-73
2022/09/10 02:31:31;;;;;;;19.27;7.63;;;;;;;14.17;100.00;99957.00;5044979;28;20101;-73
2022/09/10 02:33:56;;;;;;;12.77;7.00;;;;;;;14.18;100.00;99962.19;5051136;28;20484;-73
2022/09/10 02:36:24;;;;;;;10.15;6.13;;;;;;;14.18;100.00;99962.19;5051986;28;20033;-73
2022/09/10 02:38:51;;;;;;;10.52;6.82;;;;;;;14.10;100.00;99955.75;5064293;28;20041;-73
2022/09/10 02:41:16;;;;;;;11.15;7.13;;;;;;;14.19;100.00;99969.13;5052456;28;20436;-73
2022/09/10 02:43:42;;;;;;;12.95;7.15;;;;;;;13.83;100.00;99913.66;5063753;28;20036;-73
2022/09/10 02:46:08;;;;;;;14.13;7.10;;;;;;;14.07;100.00;99948.06;5050691;28;20058;-73
2022/09/10 02:48:34;;;;;;;9.88;6.78;;;;;;;14.13;100.00;99953.75;5051971;28;20037;-73
2022/09/10 02:50:59;;;;;;;15.50;7.15;;;;;;;14.17;100.00;99957.84;5052130;28;20106;-73
2022/09/10 02:53:25;;;;;;;14.93;7.60;;;;;;;14.23;100.00;99961.84;5065557;28;20034;-74
2022/09/10 02:55:50;;;;;;;16.05;7.75;;;;;;;14.23;100.00;99965.34;5051908;28;20021;-73
2022/09/10 02:58:16;;;;;;;13.07;9.00;;;;;;;14.15;100.00;99949.22;5050922;28;20714;-72
2022/09/10 03:00:42;;;;;;;17.65;8.20;;;;;;;14.20;100.00;99965.56;5051476;28;20036;-72
2022/09/10 03:03:07;;;;;;;13.07;7.93;;;;;;;14.23;100.00;99969.75;5061847;28;20029;-73
2022/09/10 03:05:37;;;;;;;12.45;7.22;;;;;;;14.18;100.00;99956.91;5055293;28;20029;-72
2022/09/10 03:08:05;;;;;;;15.00;8.95;;;;;;;14.23;100.00;99965.34;5050442;28;20039;-72
2022/09/10 03:10:31;;;;;;;17.08;8.30;;;;;;;14.25;100.00;99971.38;5037196;28;20082;-72
2022/09/10 03:12:57;;;;;;;13.63;8.50;;;;;;;14.25;100.00;99968.72;5051888;28;20040;-72
2022/09/10 03:15:22;;;;;;;13.90;7.40;;;;;;;14.26;100.00;99970.38;5050109;28;20025;-72
2022/09/10 03:17:47;;;;;;;12.63;7.82;;;;;;;14.28;100.00;99973.78;5051837;28;20028;-73
2022/09/10 03:20:13;;;;;;;16.42;8.52;;;;;;;14.09;100.00;99936.41;5042959;28;20053;-73
2022/09/10 03:22:38;;;;;;;11.85;8.02;;;;;;;14.28;100.00;99967.66;5041802;28;20040;-72
2022/09/10 03:25:05;;;;;;;13.02;7.30;;;;;;;14.29;100.00;99975.50;5043041;28;20540;-74
2022/09/10 03:27:31;;;;;;;15.65;7.75;;;;;;;14.19;100.00;99958.56;5044136;28;20086;-71
2022/09/10 03:29:56;;;;;;;18.58;7.25;;;;;;;14.29;100.00;99969.34;5051475;28;20103;-72
2022/09/10 03:32:21;;;;;;;14.70;7.85;;;;;;;14.29;100.00;99975.50;5051517;28;20103;-72
2022/09/10 03:34:48;;;;;;;14.40;7.65;;;;;;;14.29;100.00;99972.00;5046315;28;20049;-72
2022/09/10 03:37:14;;;;;;;9.30;6.32;;;;;;;14.29;100.00;99970.19;5046110;28;20108;-72
2022/09/10 03:39:40;;;;;;;24.33;8.45;;;;;;;14.24;100.00;99956.47;5050694;28;20025;-72
2022/09/10 03:42:06;;;;;;;21.30;7.45;;;;;;;14.32;100.00;99959.41;5053088;28;20025;-74
2022/09/10 03:44:32;;;;;;;18.20;8.68;;;;;;;13.92;100.00;99897.19;5051308;28;20480;-73
2022/09/10 03:47:01;;;;;;;13.77;7.80;;;;;;;14.27;100.00;99950.94;5052600;28;20072;-73
2022/09/10 03:49:26;;;;;;;11.90;7.00;;;;;;;14.35;100.00;99963.66;5052973;28;20033;-74
2022/09/10 03:51:52;;;;;;;12.45;7.03;;;;;;;14.21;100.00;99940.81;5050204;28;20165;-74
2022/09/10 03:54:18;;;;;;;16.23;7.32;;;;;;;14.33;100.00;99958.47;5049785;28;20039;-74
2022/09/10 03:56:43;;;;;;;13.73;8.00;;;;;;;14.27;100.00;99939.53;5049420;28;20056;-74
2022/09/10 03:59:09;;;;;;;17.30;7.43;;;;;;;14.40;100.00;99960.69;5051136;28;20059;-73
2022/09/10 04:01:34;;;;;;;12.32;7.18;;;;;;;14.43;100.00;99958.63;5049828;28;20456;-73
2022/09/10 04:04:01;;;;;;;15.00;7.45;;;;;;;14.42;100.00;99948.19;5049527;28;20101;-73
2022/09/10 04:06:27;;;;;;;13.00;7.97;;;;;;;14.41;100.00;99954.41;5049943;28;20033;-73
2022/09/10 04:08:52;;;;;;;15.52;9.20;;;;;;;14.39;100.00;99954.53;5052656;28;20029;-73
2022/09/10 04:11:18;;;;;;;11.45;6.75;;;;;;;14.36;100.00;99951.28;5051448;28;20112;-72
2022/09/10 04:13:47;;;;;;;15.32;8.55;;;;;;;14.25;100.00;99933.53;5048080;28;20090;-73
2022/09/10 04:16:12;;;;;;;21.60;8.10;;;;;;;14.41;100.00;99962.34;5052179;28;20051;-73
2022/09/10 04:18:38;;;;;;;12.70;7.57;;;;;;;14.41;100.00;99952.63;5050972;28;20029;-73
2022/09/10 04:21:03;;;;;;;13.82;8.65;;;;;;;14.02;100.00;99895.56;5052048;28;20025;-73
2022/09/10 04:23:29;;;;;;;10.73;6.88;;;;;;;14.39;100.00;99954.53;5051515;28;20111;-73
2022/09/10 04:25:55;;;;;;;16.15;8.25;;;;;;;14.12;100.00;99914.22;5055091;28;20029;-73
2022/09/10 04:28:20;;;;;;;13.88;8.55;;;;;;;14.32;100.00;99943.53;5055147;28;20017;-73
2022/09/10 04:30:46;;;;;;;17.05;8.02;;;;;;;14.38;100.00;99954.63;5052400;28;20561;-73
2022/09/10 04:33:12;;;;;;;17.23;8.13;;;;;;;14.40;100.00;99950.91;5052918;28;20064;-73
2022/09/10 04:35:38;;;;;;;15.70;8.23;;;;;;;14.41;100.00;99954.41;5054646;28;20035;-73
2022/09/10 04:38:04;;;;;;;22.27;8.35;;;;;;;14.40;100.00;99950.09;5049883;28;20108;-73
2022/09/10 04:40:29;;;;;;;11.52;6.57;;;;;;;14.40;100.00;99950.91;5054888;28;20104;-73
2022/09/10 04:42:55;;;;;;;14.23;7.18;;;;;;;14.32;100.00;99938.25;5066464;28;20051;-74
2022/09/10 04:45:20;;;;;;;16.83;6.88;;;;;;;14.38;100.00;99946.72;5054599;28;20055;-72
2022/09/10 04:47:46;;;;;;;11.40;7.25;;;;;;;14.43;100.00;99950.69;5064715;28;20115;-73
2022/09/10 04:50:14;;;;;;;16.73;7.93;;;;;;;14.47;100.00;99959.25;5057046;28;20112;-73
2022/09/10 04:52:40;;;;;;;8.57;6.60;;;;;;;14.47;100.00;99953.97;5053335;28;20060;-73
2022/09/10 04:55:06;;;;;;;14.25;7.30;;;;;;;14.48;100.00;99950.38;5052870;28;20113;-73
2022/09/10 04:57:32;;;;;;;20.90;8.13;;;;;;;14.53;100.00;99962.28;5049447;28;20029;-73
2022/09/10 04:59:57;;;;;;;18.85;8.35;;;;;;;14.45;100.00;99937.38;5062220;28;20040;-74
2022/09/10 05:02:23;;;;;;;13.93;7.22;;;;;;;14.50;100.00;99953.75;5071141;28;20109;-73
2022/09/10 05:04:49;;;;;;;20.15;7.90;;;;;;;14.44;100.00;99956.84;5071548;28;20033;-74
2022/09/10 05:07:15;;;;;;;10.02;7.28;;;;;;;14.49;100.00;99966.13;5058568;28;20102;-72
2022/09/10 05:09:40;;;;;;;12.82;7.07;;;;;;;14.41;100.00;99951.78;5064297;28;20047;-73
2022/09/10 05:12:05;;;;;;;18.23;7.93;;;;;;;14.44;100.00;99964.75;5060303;28;20028;-72
2022/09/10 05:14:32;;;;;;;14.30;7.20;;;;;;;14.01;100.00;99901.78;5054011;28;20044;-72
2022/09/10 05:16:58;;;;;;;11.73;6.68;;;;;;;14.39;100.00;99956.34;5058312;28;20119;-72
2022/09/10 05:19:24;;;;;;;11.13;7.97;;;;;;;14.44;100.00;99970.06;5053301;28;20029;-72
2022/09/10 05:21:49;;;;;;;11.95;7.78;;;;;;;14.46;100.00;99970.81;5053856;28;20036;-72
2022/09/10 05:24:15;;;;;;;10.05;7.15;;;;;;;14.45;100.00;99963.81;5053565;28;20554;-72
2022/09/10 05:26:41;;;;;;;15.75;7.20;;;;;;;14.47;100.00;99961.88;5053496;28;20033;-72
2022/09/10 05:29:06;;;;;;;11.25;7.03;;;;;;;14.49;100.00;99960.00;5053783;28;20040;-72
2022/09/10 05:31:33;;;;;;;12.73;8.02;;;;;;;14.54;100.00;99968.41;5053780;28;20021;-72
2022/09/10 05:34:00;;;;;;;11.85;7.82;;;;;;;14.53;100.00;99970.22;5053644;28;20104;-72
2022/09/10 05:36:26;;;;;;;11.32;7.57;;;;;;;14.58;100.00;99967.25;5053269;28;20531;-72
2022/09/10 05:38:53;;;;;;;19.98;7.63;;;;;;;14.51;100.00;99974.78;5047506;28;20086;-72
2022/09/10 05:41:20;;;;;;;15.20;7.80;;;;;;;14.56;100.00;99980.59;5053762;28;20028;-72
2022/09/10 05:43:45;;;;;;;12.18;7.97;;;;;;;14.31;100.00;99955.06;5049961;28;20028;-73
2022/09/10 05:46:11;;;;;;;15.82;8.88;;;;;;;14.40;100.00;99976.53;5041219;28;20025;-72
2022/09/10 05:48:36;;;;;;;23.83;8.88;;;;;;;14.38;100.00;99983.72;5051708;28;20032;-73
2022/09/10 05:51:02;;;;;;;13.88;8.52;;;;;;;14.36;100.00;99986.50;5037632;28;20032;-72
2022/09/10 05:53:27;;;;;;;16.85;8.75;;;;;;;14.36;100.00;99991.78;5056954;28;20112;-72
2022/09/10 05:55:52;;;;;;;19.02;10.23;;;;;;;14.34;100.00;99996.31;5053383;28;20036;-72
2022/09/10 05:58:17;;;;;;;16.50;9.15;;;;;;;14.33;100.00;99999.88;5056942;28;20108;-72
2022/09/10 06:00:43;;;;;;;17.80;10.48;;;;;;;14.33;100.00;99994.59;5052558;28;20057;-73
2022/09/10 06:03:09;;;;;;;12.27;8.45;;;;;;;14.33;100.00;99998.09;5046469;28;20124;-72
2022/09/10 06:05:34;;;;;;;13.35;9.30;;;;;;;14.33;100.00;99990.19;5059440;28;20059;-73
2022/09/10 06:07:59;;;;;;;13.77;9.70;;;;;;;14.36;100.00;99990.94;5064378;28;20115;-73
2022/09/10 06:10:25;;;;;;;19.08;10.57;;;;;;;14.37;100.00;99989.94;5059611;28;20024;-72
2022/09/10 06:12:50;;;;;;;16.60;10.88;;;;;;;14.39;100.00;99996.00;5054434;28;20490;-72
2022/09/10 06:15:17;;;;;;;13.57;9.68;;;;;;;14.37;100.00;99993.44;5051930;28;20068;-73
2022/09/10 06:17:43;;;;;;;21.13;11.90;;;;;;;14.36;100.00;99993.56;5051589;28;20028;-72
2022/09/10 06:20:09;;;;;;;15.15;11.02;;;;;;;14.19;100.00;99979.72;5048784;28;20555;-72
2022/09/10 06:22:34;;;;;;;17.00;11.85;;;;;;;14.36;100.00;100012.94;5048258;28;20383;-73
2022/09/10 06:24:59;;;;;;;16.08;11.80;;;;;;;14.37;100.00;100008.44;5046610;28;20029;-73
2022/09/10 06:27:25;;;;;;;19.42;12.27;;;;;;;14.32;100.00;100001.69;5052012;28;20033;-73
2022/09/10 06:29:50;;;;;;;19.52;12.55;;;;;;;14.34;100.00;100004.25;5052405;28;20069;-75
2022/09/10 06:32:16;;;;;;;18.42;13.40;;;;;;;14.17;100.00;99989.56;5056962;28;20429;-73
2022/09/10 06:34:41;;;;;;;20.60;14.55;;;;;;;13.96;100.00;99961.19;5052001;28;20033;-72
2022/09/10 06:37:07;;;;;;;20.00;12.73;;;;;;;14.32;100.00;100017.56;5053911;28;20068;-73
2022/09/10 06:39:32;;;;;;;16.85;13.18;;;;;;;14.31;100.00;100012.34;5058696;28;20467;-73
2022/09/10 06:41:58;;;;;;;23.17;14.23;;;;;;;14.33;100.00;100023.66;5052054;28;20448;-74
2022/09/10 06:44:23;;;;;;;16.92;12.50;;;;;;;14.24;100.00;100011.09;5047312;28;20060;-75
2022/09/10 06:46:48;;;;;;;18.55;11.90;;;;;;;14.26;100.00;100011.88;5049130;28;20091;-73
2022/09/10 06:49:14;;;;;;;27.63;13.57;;;;;;;14.05;100.00;99981.66;5050525;28;20124;-73
2022/09/10 06:51:40;;;;;;;17.80;14.55;;;;;;;14.31;100.00;100023.78;5047360;28;20029;-73
2022/09/10 06:54:06;;;;;;;23.17;13.77;;;;;;;14.15;100.00;99999.41;5051778;28;20027;-73
2022/09/10 06:56:32;;;;;;;25.02;14.93;;;;;;;14.41;100.00;100042.50;5056649;28;20087;-73
2022/09/10 06:58:57;;;;;;;23.90;16.73;;;;;;;14.47;100.00;100038.56;5043299;28;20024;-73
2022/09/10 07:01:24;;;;;;;19.08;15.82;;;;;;;14.48;100.00;100042.91;5058267;28;20103;-73
2022/09/10 07:03:59;;;;;;;22.75;16.15;;;;;;;14.33;100.00;100024.53;5050446;28;20040;-73
2022/09/10 07:06:26;;;;;;;19.38;14.82;;;;;;;14.50;100.00;100046.31;5052170;28;20033;-73
2022/09/10 07:08:55;;;;;;;21.13;15.88;;;;;;;14.50;100.00;100041.84;5043056;28;20024;-74
2022/09/10 07:11:21;;;;;;;19.38;15.25;;;;;;;14.30;100.00;100006.22;5009758;28;20135;-74
2022/09/10 07:13:49;;;;;;;22.10;17.77;;;;;;;14.57;100.00;100042.22;5008202;28;20032;-74
2022/09/10 07:16:24;;;;;;;22.27;17.17;;;;;;;14.64;100.00;100043.47;5012088;28;20098;-73
2022/09/10 07:18:55;;;;;;;22.38;17.58;;;;;;;14.63;100.00;100036.53;5013460;28;20065;-72
2022/09/10 07:21:22;;;;;;;23.08;18.52;;;;;;;14.59;100.00;100035.06;5047336;28;20033;-72
2022/09/10 07:23:48;;;;;;;23.58;17.85;;;;;;;14.64;100.00;100039.03;5056187;28;20044;-74
2022/09/10 07:26:15;;;;;;;27.05;19.30;;;;;;;14.71;100.00;100044.72;5035022;28;20029;-73
2022/09/10 07:28:41;;;;;;;25.42;19.75;;;;;;;14.66;100.00;100038.94;5014829;28;20029;-72
2022/09/10 07:31:13;;;;;;;37.42;19.83;;;;;;;14.78;100.00;100053.91;5014508;28;20930;-73
2022/09/10 07:33:38;;;;;;;21.25;18.83;;;;;;;14.74;100.00;100040.06;5004629;28;20163;-73
2022/09/10 07:36:05;;;;;;;26.40;19.83;;;;;;;14.71;100.00;100042.09;5009721;28;20883;-74
2022/09/10 07:38:30;;;;;;;28.17;20.52;;;;;;;14.71;100.00;100045.56;5012497;28;20037;-74
2022/09/10 07:40:58;;;;;;;25.63;20.58;;;;;;;14.73;100.00;100048.97;5009116;28;20503;-73
2022/09/10 07:43:23;;;;;;;25.08;18.77;;;;;;;14.74;100.00;100055.94;5009849;28;20029;-74
2022/09/10 07:45:49;;;;;;;39.35;23.75;;;;;;;14.69;100.00;100036.06;5009722;28;20041;-73
2022/09/10 07:48:14;;;;;;;29.77;22.77;;;;;;;14.68;100.00;100039.66;5004313;28;20031;-72
2022/09/10 07:50:39;;;;;;;27.63;21.48;;;;;;;14.64;100.00;100027.63;5008887;28;20025;-73
2022/09/10 07:53:05;;;;;;;40.92;24.42;;;;;;;14.78;100.00;100038.88;5009438;28;20021;-73
2022/09/10 07:55:30;;;;;;;26.83;23.38;;;;;;;14.73;100.00;100048.13;5011242;28;20060;-74
2022/09/10 07:57:56;;;;;;;30.92;22.55;;;;;;;14.70;100.00;100069.50;5012700;28;20025;-74
2022/09/10 08:00:22;;;;;;;29.38;22.83;;;;;;;14.64;100.00;100069.91;5009825;28;20025;-76
2022/09/10 08:02:48;;;;;;;24.42;21.38;;;;;;;14.62;100.00;100066.56;5007850;28;20029;-74
2022/09/10 08:05:13;;;;;;;32.72;26.27;;;;;;;14.67;100.00;100067.06;5018515;28;20890;-77
2022/09/10 08:07:40;;;;;;;27.25;23.98;;;;;;;14.65;100.00;100077.75;5012374;28;20021;-75
2022/09/10 08:10:08;;;;;;;28.38;25.33;;;;;;;14.63;100.00;100073.53;5024674;28;20045;-74
2022/09/10 08:12:38;;;;;;;27.65;22.90;;;;;;;14.68;100.00;100076.69;5002156;28;20029;-74
2022/09/10 08:15:04;;;;;;;29.85;26.63;;;;;;;14.68;100.00;100063.47;5036161;28;20021;-74
2022/09/10 08:17:30;;;;;;;29.15;25.48;;;;;;;14.69;100.00;100079.22;5035048;28;20049;-72
2022/09/10 08:19:56;;;;;;;32.75;27.50;;;;;;;14.58;100.00;100078.31;5039781;28;20033;-73
2022/09/10 08:22:21;;;;;;;37.40;26.83;;;;;;;14.62;100.00;100082.44;5035702;28;20036;-72
2022/09/10 08:24:47;;;;;;;34.25;26.73;;;;;;;14.71;100.00;100097.63;5017023;28;20029;-72
2022/09/10 08:27:14;;;;;;;29.38;26.13;;;;;;;14.78;100.00;100091.78;5015612;28;20021;-74
2022/09/10 08:29:41;;;;;;;30.88;27.67;;;;;;;14.76;100.00;100093.72;5009970;28;20920;-74
2022/09/10 08:32:06;;;;;;;30.17;26.48;;;;;;;14.76;100.00;100100.78;5021648;28;20126;-76
2022/09/10 08:34:33;;;;;;;29.73;25.20;;;;;;;14.70;100.00;100095.94;5030295;28;20040;-74
2022/09/10 08:36:58;;;;;;;28.65;24.65;;;;;;;14.58;100.00;100087.09;5035530;28;20036;-76
2022/09/10 08:39:24;;;;;;;30.38;27.17;;;;;;;14.68;100.00;100103.13;5056504;28;20036;-74
2022/09/10 08:42:04;;;;;;;33.13;25.63;;;;;;;14.69;100.00;100100.41;5052805;28;20033;-74
2022/09/10 08:44:58;;;;;;;30.33;27.10;;;;;;;14.70;100.00;100103.88;5029806;28;20025;-74
2022/09/10 08:47:39;;;;;;;36.67;26.98;;;;;;;14.73;100.00;100085.16;5070815;28;20085;-72
2022/09/10 08:50:10;;;;;;;33.00;28.85;;;;;;;14.79;100.00;100096.13;5026143;28;20044;-74
2022/09/10 08:52:49;;;;;;;40.22;29.17;;;;;;;14.79;100.00;100097.94;5059189;28;20874;-73
2022/09/10 08:55:14;;;;;;;44.72;27.33;;;;;;;14.77;100.00;100113.03;5055774;28;20505;-74
2022/09/10 08:57:44;;;;;;;43.67;27.70;;;;;;;14.65;100.00;100088.34;5046605;28;20072;-74
2022/09/10 09:00:16;;;;;;;29.42;24.35;;;;;;;14.65;100.00;100098.91;5054639;28;20028;-74
2022/09/10 09:02:51;;;;;;;31.45;25.92;;;;;;;14.74;100.00;100102.69;5026343;28;20543;-74
2022/09/10 09:05:18;;;;;;;29.15;25.95;;;;;;;14.79;100.00;100116.44;5056853;28;20120;-74
2022/09/10 09:07:44;;;;;;;28.08;24.33;;;;;;;14.68;100.00;100089.91;5065261;28;20086;-74
2022/09/10 09:10:25;;;;;;;29.20;23.75;;;;;;;14.88;100.00;100109.63;5041632;28;20111;-75
2022/09/10 09:13:11;;;;;;;30.23;26.95;;;;;;;14.96;100.00;100125.81;5059361;28;20036;-74
2022/09/10 09:15:40;;;;;;;27.90;24.38;;;;;;;14.99;100.00;100122.94;5072017;28;20063;-75
2022/09/10 09:18:18;;;;;;;26.63;23.00;;;;;;;15.05;100.00;100123.31;5068004;28;20056;-75
2022/09/10 09:20:46;;;;;;;32.00;22.95;;;;;;;15.05;100.00;100110.09;5062471;28;20033;-73
2022/09/10 09:23:20;;;;;;;28.35;23.70;;;;;;;15.10;100.00;100118.56;5093730;28;20048;-73
2022/09/10 09:25:48;;;;;;;23.48;21.27;;;;;;;15.09;100.00;100119.50;5037391;28;20115;-73
2022/09/10 09:28:20;;;;;;;27.40;23.30;;;;;;;15.10;100.00;100120.34;5032193;28;20033;-72
2022/09/10 09:30:48;;;;;;;25.63;22.98;;;;;;;15.07;100.00;100126.69;5060108;28;20027;-73
2022/09/10 09:33:17;;;;;;;24.60;20.88;;;;;;;15.00;100.00;100111.41;5051616;28;20013;-74
2022/09/10 09:35:51;;;;;;;22.10;19.40;;;;;;;15.00;100.00;100111.41;5051547;28;20036;-72
2022/09/10 09:38:22;;;;;;;26.20;19.95;;;;;;;15.05;100.00;100118.03;5058058;28;20515;-75
2022/09/10 09:40:56;;;;;;;30.67;20.25;;;;;;;15.02;100.00;100125.34;5059326;28;20492;-75
2022/09/10 09:43:25;;;;;;;27.27;21.65;;;;;;;14.92;100.00;100127.81;5058491;28;20102;-74
2022/09/10 09:45:52;;;;;;;27.00;20.95;;;;;;;14.87;100.00;100127.28;5053867;28;20081;-74
2022/09/10 09:48:19;;;;;;;26.52;21.30;;;;;;;14.83;100.00;100128.50;5082247;28;20056;-75
2022/09/10 09:50:50;;;;;;;29.02;22.77;;;;;;;14.86;100.00;100128.28;5044391;28;20064;-73
2022/09/10 09:53:26;;;;;;;22.50;19.92;;;;;;;14.85;100.00;100131.88;5044946;28;20616;-72
2022/09/10 09:55:59;;;;;;;22.50;20.15;;;;;;;14.90;100.00;100145.63;5048788;28;20086;-72
2022/09/10 09:58:27;;;;;;;32.47;22.17;;;;;;;14.93;100.00;100144.56;5050245;28;20507;-72
2022/09/10 10:01:07;;;;;;;29.00;21.40;;;;;;;14.95;100.00;100140.81;5050815;28;20410;-72
2022/09/10 10:03:43;;;;;;;28.95;23.20;;;;;;;15.00;100.00;100146.66;5049693;28;20044;-73
2022/09/10 10:06:10;;;;;;;24.35;21.77;;;;;;;15.02;100.00;100144.72;5045882;28;20059;-72
2022/09/10 10:08:42;;;;;;;27.50;21.90;;;;;;;14.99;100.00;100126.44;5083694;28;20029;-73
2022/09/10 10:11:08;;;;;;;27.88;20.02;;;;;;;15.03;100.00;100140.28;5050018;28;20037;-72
2022/09/10 10:13:44;;;;;;;22.67;20.13;;;;;;;14.98;100.00;100143.25;5050686;28;20032;-72
2022/09/10 10:16:33;;;;;;;21.45;19.08;;;;;;;15.00;100.00;100143.16;5056541;28;20041;-72
2022/09/10 10:18:59;;;;;;;32.65;19.85;;;;;;;14.92;100.00;100130.47;5052928;28;20467;-72
2022/09/10 10:21:33;;;;;;;24.23;20.67;;;;;;;15.05;100.00;100133.06;5049935;28;20111;-74
2022/09/10 10:23:58;;;;;;;25.13;19.40;;;;;;;15.07;100.00;100132.00;5089667;28;20502;-73
2022/09/10 10:26:29;;;;;;;35.67;24.65;;;;;;;15.16;100.00;100136.63;5051196;28;20036;-72
2022/09/10 10:29:05;;;;;;;24.52;20.98;;;;;;;14.76;100.00;100080.47;5052395;28;20033;-72
2022/09/10 10:31:45;;;;;;;24.60;21.48;;;;;;;15.14;100.00;100143.81;5051510;28;20106;-73
2022/09/10 10:34:16;;;;;;;23.08;20.20;;;;;;;14.69;100.00;100060.72;5047269;28;20086;-73
2022/09/10 10:36:54;;;;;;;25.17;21.00;;;;;;;15.21;100.00;100139.78;5053322;28;20040;-72
2022/09/10 10:39:47;;;;;;;22.77;20.48;;;;;;;15.20;100.00;100135.47;5050243;28;20136;-72
2022/09/10 10:42:28;;;;;;;23.33;19.38;;;;;;;15.15;100.00;100113.75;5041614;28;20129;-72
2022/09/10 10:45:17;;;;;;;30.83;19.05;;;;;;;15.29;100.00;100142.72;5060236;28;20040;-72
2022/09/10 10:47:47;;;;;;;22.23;19.98;;;;;;;15.31;100.00;100146.06;5052710;28;20029;-72
2022/09/10 10:50:17;;;;;;;30.80;20.77;;;;;;;15.37;100.00;100139.50;5053559;28;20060;-72
2022/09/10 10:53:04;;;;;;;25.38;20.95;;;;;;;15.41;100.00;100142.78;5046325;28;20048;-72
2022/09/10 10:55:40;;;;;;;21.23;18.02;;;;;;;15.41;100.00;100146.22;5052413;28;20028;-72
2022/09/10 10:58:36;;;;;;;20.25;16.67;;;;;;;15.33;100.00;100130.94;5047850;28;20119;-72
2022/09/10 11:01:05;;;;;;;23.77;17.08;;;;;;;15.10;100.00;100105.31;5044167;28;20037;-73
2022/09/10 11:03:36;;;;;;;22.65;18.98;;;;;;;15.42;100.00;100147.09;5079591;28;20186;-73
2022/09/10 11:06:13;;;;;;;29.65;18.45;;;;;;;15.36;100.00;100145.75;5047319;28;20087;-73
2022/09/10 11:08:49;;;;;;;25.83;20.25;;;;;;;15.16;100.00;100094.28;5079374;28;20029;-73
2022/09/10 11:11:21;;;;;;;26.98;20.05;;;;;;;15.41;100.00;100135.66;5044389;28;20029;-73
2022/09/10 11:14:13;;;;;;;22.40;17.00;;;;;;;15.46;100.00;100146.75;5077243;28;20029;-74
2022/09/10 11:16:44;;;;;;;19.15;16.50;;;;;;;15.47;100.00;100150.25;5045863;28;20053;-72
2022/09/10 11:19:15;;;;;;;23.50;17.23;;;;;;;15.44;100.00;100147.84;5025990;28;20113;-72
2022/09/10 11:21:48;;;;;;;21.00;17.10;;;;;;;15.19;100.00;100106.44;5039971;28;20044;-73